Aérodrome :
LOGIN :

S'inscrire | Disclaimer

   EN    FR    IT 

 










Légende :    VFR   VFR Marginal   IFR   IFR Intensif   IFR Très Intensif
Visi : 
Plafond : 
>= 8 km
>= 3000ft
5 à 8 km
1000 à 3000 ft
1500m à 5 km
500 à 1000 ft
800 à 1500m
200 à 500 ft
< 800m
< 200 ft
Symboles :   Orages  Brouillard  Fortes neiges  Fortes précipitations  Vent > 20 kt
SIGMETs :   Divers  Orages  Givrage  Turbulence  Onde Orograph.  Cendres Volcan.







- Altitude de l'aérodrome : 489 ft
- Code IATA : GDN


EPGD - Gdansk

DERNIER METAR :
  • 280000Z VRB02KT 0100 R29/0325N FG NSC 00/M01 Q1015

METARs EXPIRÉS :
  • 272330Z VRB01KT 0900 0150W R29/0550N FG NSC 02/01 Q1015
  • 272300Z 00000KT 2500 0150W PRFG BR NSC 02/01 Q1015
  • 272230Z VRB01KT 6000 NSC 02/01 Q1015
  • 272200Z VRB02KT 7000 NSC 03/02 Q1015
  • 272130Z 08002KT 7000 NSC 03/02 Q1015

TAF TAF EPGD
Valide du 28 à 00h jusqu'au 29 à 00h UTC


272330Z 2800/2824 VRB02KT 2000 BR NSC
TEMPO 2800/2806 0200 FG
BECMG 2806/2808 04010KT 9999
BECMG 2812/2815 -RA BKN014
TEMPO 2815/2824 4000 RA BR BKN006 OVC010
Pas de NOTAMs connus pour ce terrain.



MET'MAP, la Météo Aéronautique d'un coup d'oeil ! - Copyright ORBIFLY Décembre 2007 - Disclaimer

ORBIFLY MET'MAP TEAM :

Programmation & Développement : Alexandra Zaïnal
Conception & Développement : Baudouin d'Aumeries
Co-Programmation & Développement : Marc-Olivier Méhu
Soutien technique & logistique : Manuel Goepfert

Contact : metmap@orbifly.com




SOURCES & CREDITS :

   NOAA